Triathlon Gravelines 2021

Epreuve sélectionnée:


M - Résultats Scratch

Filtre:

Partants Général Top 5



Recherche:

N° dossard
Nom
Club
M - Classement arrivée
Clt Athlète Nat. Club Temps Sexe Cat Nat Vélo CaP Split1 Split2 Split3
0 80 LEROY Michael 00:00:00 M (0e) Master (0e) 00:09:14 (1e) 00:00:00 (0) 01:16:55 (296e) 00:09:14 (1e) 01:08:40 (152e) 02:59:48 (301e)
0 103 GILLODTS Thomas LES TRITONS MELDOIS 00:00:00 M (0e) Senior (0e) 00:18:41 (2e) 00:00:00 (0) 00:38:29 (5e) 00:18:41 (2e) 00:50:12 (3e) 01:42:07 (3e)
0 563 LAMY Hugo 00:00:00 M (0e) Senior (0e) 00:19:13 (3e) 00:00:00 (0) 00:38:24 (4e) 00:19:13 (3e) 00:50:51 (4e) 01:41:01 (1e)
0 691 CARPENTIER Antoine LILLE TRIATHLON 00:00:00 M (0e) Senior (0e) 00:19:59 (4e) 00:00:00 (0) 00:42:57 (23e) 00:19:59 (4e) 00:52:50 (7e) 01:46:12 (5e)
0 134 GILLODTS Guillaume TRIATHLON LITTORAL 59 00:00:00 M (0e) Master (0e) 00:21:17 (5e) 00:00:00 (0) 00:39:39 (9e) 00:21:17 (5e) 00:52:05 (6e) 01:43:31 (4e)
0 611 GALLET Mathieu AUTUN TRIATHLON 00:00:00 M (0e) Senior (0e) 00:21:17 (6e) 00:00:00 (0) 00:36:02 (1e) 00:21:17 (6e) 00:52:04 (5e) 01:41:12 (2e)
0 575 LOUVET Lucas 00:00:00 M (0e) Senior (0e) 00:21:50 (7e) 00:00:00 (0) 00:47:35 (66e) 00:21:50 (7e) 00:57:10 (18e) 01:56:35 (33e)
0 56 COMYN Olivier BLANC NEZ TRIATHLON 62 00:00:00 M (0e) Master (0e) 00:22:04 (8e) 00:00:00 (0) 00:56:29 (163e) 00:22:04 (8e) 00:56:55 (17e) 02:00:55 (55e)
0 542 BOURLET Mathieu BEAUVAIS TRIATHLON 00:00:00 M (0e) Senior (0e) 00:22:06 (9e) 00:00:00 (0) 00:39:11 (7e) 00:22:06 (9e) 01:03:29 (83e) 01:55:17 (25e)
0 178 CAZIER Chloe LES TRITONS MELDOIS 00:00:00 F (0e) Senior (0e) 00:22:07 (10e) 00:00:00 (0) 00:52:31 (123e) 00:22:07 (10e) 01:00:27 (42e) 02:04:42 (76e)
0 126 DEGRAVE Jean-philippe 00:00:00 M (0e) Senior (0e) 00:22:42 (11e) 00:00:00 (0) 00:49:21 (89e) 00:22:42 (11e) 00:59:40 (37e) 02:00:59 (57e)
0 185 TERRIER Michael 00:00:00 M (0e) Master (0e) 00:22:44 (12e) 00:00:00 (0) 01:02:11 (228e) 00:22:44 (12e) 01:02:05 (69e) 02:09:22 (109e)
0 599 MEUNIER Vincent SKWAL ATHLON 00:00:00 M (0e) Senior (0e) 00:22:45 (13e) 00:00:00 (0) 00:41:57 (18e) 00:22:45 (13e) 00:56:22 (15e) 01:51:00 (12e)
0 537 DEWANCKELE Matthieu BEAUVAIS TRIATHLON 00:00:00 M (0e) Master (0e) 00:22:45 (14e) 00:00:00 (0) 00:39:38 (8e) 00:22:45 (14e) 00:56:16 (14e) 01:49:26 (7e)
0 244 RIVENET Baptiste BLANC NEZ TRIATHLON 62 00:00:00 M (0e) Master (0e) 00:22:47 (15e) 00:00:00 (0) 00:45:05 (42e) 00:22:47 (15e) 00:56:15 (12e) 01:53:14 (20e)
0 759 MARIN Nicolas VALENCIENNES TRIATHLON 00:00:00 M (0e) Senior (0e) 00:22:48 (16e) 00:00:00 (0) 00:40:34 (12e) 00:22:48 (16e) 00:56:13 (11e) 01:49:38 (8e)
0 159 BERTIN Thomas LYS CALAIS TRIATHLON 00:00:00 M (0e) Senior (0e) 00:22:49 (17e) 00:00:00 (0) 00:45:10 (45e) 00:22:49 (17e) 00:56:15 (13e) 01:53:06 (18e)
0 75 BRUNELLE Mattéo TRIATHLON CLUB DES WEPPES 00:00:00 M (0e) Senior (0e) 00:22:52 (18e) 00:00:00 (0) 00:54:07 (143e) 00:22:52 (18e) 00:57:53 (22e) 02:01:17 (60e)
0 627 DEGLAVE Philippe 00:00:00 M (0e) Master (0e) 00:23:14 (19e) 00:00:00 (0) 01:10:45 (280e) 00:23:14 (19e) 01:01:38 (61e) 02:15:00 (139e)
0 501 THERY Vincent SKWAL ATHLON 00:00:00 M (0e) Master (0e) 00:23:15 (20e) 00:00:00 (0) 00:48:12 (75e) 00:23:15 (20e) 00:58:12 (26e) 01:57:09 (36e)
0 315 LAPORTE Baptiste 00:00:00 M (0e) Senior (0e) 00:23:16 (21e) 00:00:00 (0) 00:40:08 (10e) 00:23:16 (21e) 00:57:12 (19e) 01:51:18 (16e)
0 584 LAVISSE Romain LILLE TRIATHLON 00:00:00 M (0e) Master (0e) 00:23:17 (22e) 00:00:00 (0) 00:55:11 (150e) 00:23:17 (22e) 00:59:34 (35e) 02:01:03 (58e)
0 369 DOUAI-COLLIEZ Jean-baptiste 00:00:00 M (0e) Senior (0e) 00:23:20 (23e) 00:00:00 (0) 00:47:49 (70e) 00:23:20 (23e) 01:04:34 (95e) 02:08:49 (104e)
0 590 VIOLLAND Nicolas RACING CLUB ARRAS TRIATHLON 00:00:00 M (0e) Master (0e) 00:23:22 (24e) 00:00:00 (0) 00:48:24 (76e) 00:23:22 (24e) 00:55:19 (8e) 01:51:05 (14e)
0 578 PEYTAVI Marie TRIATHLON CLUB DE LIEVIN 00:00:00 F (0e) Senior (0e) 00:23:23 (25e) 00:00:00 (0) 00:47:37 (67e) 00:23:23 (25e) 00:59:14 (29e) 01:59:41 (50e)
0 164 MESTDAGH Magali 00:00:00 F (0e) Senior (0e) 00:23:28 (26e) 00:00:00 (0) 00:58:12 (182e) 00:23:28 (26e) 01:07:52 (138e) 02:16:43 (148e)
0 545 MOREL Sebastien TRIATHLON CLUB D`HAZEBROUCK 00:00:00 M (0e) Master (0e) 00:23:31 (27e) 00:00:00 (0) 00:50:16 (100e) 00:23:31 (27e) 00:57:29 (21e) 01:57:25 (38e)
0 633 DESCAMPS Pascal TRIATHLON LITTORAL 59 00:00:00 M (0e) Master (0e) 00:23:34 (28e) 00:00:00 (0) 00:42:17 (20e) 00:23:34 (28e) 00:56:28 (16e) 01:50:45 (10e)
0 531 DELEPINE Sébastien TRIATHLON CLUB DU MONTREUILLOIS 00:00:00 M (0e) Master (0e) 00:23:37 (29e) 00:00:00 (0) 00:45:17 (47e) 00:23:37 (29e) 01:00:29 (43e) 01:59:26 (48e)
0 508 TILLIER Théo 00:00:00 M (0e) Junior (0e) 00:23:38 (30e) 00:00:00 (0) 00:58:23 (186e) 00:23:38 (30e) 01:00:58 (50e) 02:08:01 (101e)
0 199 TALAZAC Manon VALENCIENNES TRIATHLON 00:00:00 F (0e) Senior (0e) 00:23:39 (31e) 00:00:00 (0) 00:57:39 (177e) 00:23:39 (31e) 01:04:56 (99e) 02:15:26 (142e)
0 788 TIBERGHIEN Antoine LYS CALAIS TRIATHLON 00:00:00 M (0e) Master (0e) 00:23:43 (32e) 00:00:00 (0) 00:44:23 (35e) 00:23:43 (32e) 00:55:45 (9e) 01:50:55 (11e)
0 506 VAN BOXEL Mathis RONCQ TRIATHLON 00:00:00 M (0e) Senior (0e) 00:23:44 (33e) 00:00:00 (0) 00:47:26 (64e) 00:23:44 (33e) 01:01:32 (57e) 02:02:03 (63e)
0 380 MESNIER Nicolas 00:00:00 M (0e) Senior (0e) 00:23:47 (34e) 00:00:00 (0) 00:36:23 (2e) 00:23:47 (34e) 00:56:04 (10e) 01:46:24 (6e)
0 181 DESOEUVRE Damien TRIATHLON CLUB DES WEPPES 00:00:00 M (0e) Senior (0e) 00:23:51 (35e) 00:00:00 (0) 00:42:35 (21e) 00:23:51 (35e) 00:59:34 (34e) 01:56:09 (30e)
0 588 BERNARD Charlotte RACING CLUB ARRAS TRIATHLON 00:00:00 F (0e) Senior (0e) 00:24:41 (36e) 00:00:00 (0) 00:49:56 (95e) 00:24:41 (36e) 01:02:39 (76e) 02:06:14 (92e)
0 587 VANHOUTTE Adrien TRIATHLON LITTORAL 59 00:00:00 M (0e) Senior (0e) 00:24:45 (37e) 00:00:00 (0) 00:46:49 (58e) 00:24:45 (37e) 00:58:05 (23e) 01:53:19 (21e)
0 552 MEKIL Aurelien 00:00:00 M (0e) Senior (0e) 00:25:03 (38e) 00:00:00 (0) 00:42:01 (19e) 00:25:03 (38e) 00:59:58 (40e) 01:56:15 (31e)
0 146 SABBE Stéphane RONCQ TRIATHLON 00:00:00 M (0e) Master (0e) 00:25:10 (39e) 00:00:00 (0) 00:45:21 (48e) 00:25:10 (39e) 01:00:59 (51e) 01:58:21 (41e)
0 647 DEMANGE Florent 00:00:00 M (0e) Senior (0e) 00:25:13 (40e) 00:00:00 (0) 00:41:22 (15e) 00:25:13 (40e) 00:59:14 (30e) 01:53:56 (23e)
0 682 MUROT Baptiste 00:00:00 M (0e) Senior (0e) 00:25:16 (41e) 00:00:00 (0) 00:45:08 (43e) 00:25:16 (41e) 01:03:36 (84e) 02:04:42 (77e)
0 600 MEISTER Clement 00:00:00 M (0e) Senior (0e) 00:25:16 (42e) 00:00:00 (0) 00:52:46 (126e) 00:25:16 (42e) 01:00:21 (41e) 02:00:57 (56e)
0 254 DEFOSSE Remy BLANC NEZ TRIATHLON 62 00:00:00 M (0e) Senior (0e) 00:25:18 (43e) 00:00:00 (0) 00:56:24 (161e) 00:25:18 (43e) 00:59:16 (31e) 02:02:38 (66e)
0 507 PETITFRERE Guillaume 00:00:00 M (0e) Master (0e) 00:25:19 (44e) 00:00:00 (0) 01:05:01 (253e) 00:25:19 (44e) 01:06:33 (125e) 02:21:35 (190e)
0 467 LANDRON Anatole 00:00:00 M (0e) Senior (0e) 00:25:20 (45e) 00:00:00 (0) 00:51:33 (114e) 00:25:20 (45e) 01:01:43 (64e) 02:06:07 (91e)
0 649 DELANOY Xavier TRIATHLON CLUB BOULONNAIS 00:00:00 M (0e) Master (0e) 00:25:20 (46e) 00:00:00 (0) 00:52:03 (119e) 00:25:20 (46e) 00:59:20 (32e) 01:58:47 (46e)
0 567 MOREAU Eric 00:00:00 M (0e) Master (0e) 00:25:22 (47e) 00:00:00 (0) 00:49:59 (96e) 00:25:22 (47e) 01:01:38 (60e) 02:05:22 (83e)
0 156 CARRIER Olivier TRI TRAIL AND RUN QUEND 00:00:00 M (0e) Master (0e) 00:25:23 (48e) 00:00:00 (0) 00:47:11 (62e) 00:25:23 (48e) 00:58:06 (24e) 01:53:41 (22e)
0 295 DUMORTIER Jérôme C.C.WAVRIN 00:00:00 M (0e) Master (0e) 00:25:26 (49e) 00:00:00 (0) 00:43:55 (30e) 00:25:26 (49e) 00:58:08 (25e) 01:53:14 (19e)
0 550 ENGLEBERT Clarisse TRIATHLON CLUB DU MONTREUILLOIS 00:00:00 F (0e) Senior (0e) 00:25:27 (50e) 00:00:00 (0) 00:54:07 (144e) 00:25:27 (50e) 01:05:20 (106e) 02:11:43 (124e)
0 491 LEBRUN Louis VILLENEUVE D ASCQ TRIATHLON 00:00:00 M (0e) Senior (0e) 00:25:27 (51e) 00:00:00 (0) 00:48:03 (74e) 00:25:27 (51e) 01:00:50 (47e) 01:58:50 (47e)
0 612 DELANGUE Alexandre TRIATHLON LITTORAL 59 00:00:00 M (0e) Senior (0e)